Time;durP1;ratioP1;P1;durP2;ratioP2;P2;SDS_P1;SDS_P2;PMS_P1;PMS_P2;Temp;Humidity;BMP_temperature;BMP_pressure;BME280_temperature;BME280_humidity;BME280_pressure;Samples;Min_cycle;Max_cycle;Signal;HPM_P1;HPM_P2
2023/01/31 00:01:06;;;;;;;11.50;1.37;;;;;;;2.01;100.00;100557.00;5000048;28;20227;-72
2023/01/31 00:03:32;;;;;;;8.00;1.57;;;;;;;2.00;100.00;100568.13;5004458;28;20207;-72
2023/01/31 00:06:08;;;;;;;6.53;1.70;;;;;;;2.00;100.00;100553.53;5002282;28;20256;-73
2023/01/31 00:08:34;;;;;;;4.90;1.63;;;;;;;1.96;100.00;100556.94;5002268;28;20208;-72
2023/01/31 00:11:01;;;;;;;5.90;1.23;;;;;;;1.91;100.00;100562.91;4995644;28;20224;-72
2023/01/31 00:13:30;;;;;;;10.23;1.40;;;;;;;1.81;100.00;100559.38;5002952;28;20216;-73
2023/01/31 00:15:56;;;;;;;6.97;1.57;;;;;;;1.73;100.00;100551.63;4998380;28;20573;-72
2023/01/31 00:18:23;;;;;;;5.50;1.00;;;;;;;1.66;100.00;100558.41;4985280;28;20562;-72
2023/01/31 00:20:50;;;;;;;6.73;1.10;;;;;;;1.63;100.00;100557.50;4996657;28;20208;-72
2023/01/31 00:23:16;;;;;;;10.70;1.37;;;;;;;1.56;100.00;100560.88;5001506;28;20206;-73
2023/01/31 00:25:43;;;;;;;9.37;2.03;;;;;;;1.49;100.00;100563.38;4984723;28;20205;-73
2023/01/31 00:28:09;;;;;;;7.50;1.70;;;;;;;1.43;100.00;100571.03;4996123;28;20744;-72
2023/01/31 00:30:37;;;;;;;7.83;1.60;;;;;;;1.44;100.00;100559.91;4986608;28;20214;-72
2023/01/31 00:33:03;;;;;;;8.10;1.50;;;;;;;1.47;100.00;100569.34;4998653;28;20667;-73
2023/01/31 00:35:29;;;;;;;6.17;1.60;;;;;;;1.44;100.00;100577.03;4982612;28;20193;-73
2023/01/31 00:37:57;;;;;;;7.57;2.00;;;;;;;1.45;100.00;100579.63;4985161;28;21706;-73
2023/01/31 00:40:24;;;;;;;4.00;1.57;;;;;;;1.46;100.00;100583.91;4999344;28;20228;-73
2023/01/31 00:42:50;;;;;;;5.67;1.47;;;;;;;1.48;100.00;100569.38;4984923;28;20228;-73
2023/01/31 00:45:17;;;;;;;11.57;1.73;;;;;;;1.47;100.00;100580.47;4982119;28;20207;-72
2023/01/31 00:47:44;;;;;;;9.23;1.47;;;;;;;1.48;100.00;100581.38;4979931;28;20224;-73
2023/01/31 00:50:14;;;;;;;6.20;1.60;;;;;;;1.48;100.00;100583.94;4985160;28;20200;-73
2023/01/31 00:52:40;;;;;;;9.47;1.70;;;;;;;1.48;100.00;100584.78;5001547;28;20693;-73
2023/01/31 00:55:07;;;;;;;4.27;1.60;;;;;;;1.51;100.00;100599.38;4985770;28;20305;-73
2023/01/31 00:57:33;;;;;;;3.83;1.20;;;;;;;1.52;100.00;100599.38;5002330;28;20219;-72
2023/01/31 01:00:00;;;;;;;7.70;1.80;;;;;;;1.54;100.00;100604.53;4986767;28;20205;-73
2023/01/31 01:02:27;;;;;;;6.40;1.57;;;;;;;1.56;100.00;100613.13;4986746;28;20216;-73
2023/01/31 01:04:55;;;;;;;11.30;1.73;;;;;;;1.56;100.00;100609.72;4999540;28;20201;-73
2023/01/31 01:07:21;;;;;;;7.73;1.67;;;;;;;1.54;100.00;100606.25;5000892;28;20573;-73
2023/01/31 01:09:47;;;;;;;7.93;1.67;;;;;;;1.51;100.00;100604.50;4980035;28;20208;-73
2023/01/31 01:12:14;;;;;;;10.67;1.70;;;;;;;1.51;100.00;100619.91;4984663;28;20215;-73
2023/01/31 01:14:40;;;;;;;8.50;1.67;;;;;;;1.54;100.00;100634.53;4987645;28;20595;-73
2023/01/31 01:17:06;;;;;;;6.87;1.20;;;;;;;1.52;100.00;100630.22;5001722;28;20783;-73
2023/01/31 01:19:33;;;;;;;7.53;1.60;;;;;;;1.51;100.00;100625.94;4997535;28;20292;-73
2023/01/31 01:22:01;;;;;;;7.00;1.20;;;;;;;1.47;100.00;100625.88;5000095;28;20228;-73
2023/01/31 01:24:27;;;;;;;11.67;2.07;;;;;;;1.47;100.00;100626.75;5000873;28;20213;-73
2023/01/31 01:26:54;;;;;;;4.90;1.67;;;;;;;1.48;100.00;100622.47;4983805;28;20813;-73
2023/01/31 01:29:20;;;;;;;7.80;1.50;;;;;;;1.48;100.00;100628.47;4984805;28;20201;-73
2023/01/31 01:31:47;;;;;;;12.70;2.20;;;;;;;1.45;100.00;100623.28;4981548;28;20690;-73
2023/01/31 01:34:15;;;;;;;9.57;1.67;;;;;;;1.45;100.00;100631.00;4982240;28;20207;-73
2023/01/31 01:36:43;;;;;;;8.37;2.10;;;;;;;1.46;100.00;100642.13;5000297;28;20221;-72
2023/01/31 01:39:12;;;;;;;7.53;1.43;;;;;;;1.46;100.00;100644.69;4999554;28;20196;-73
2023/01/31 01:41:41;;;;;;;12.40;1.87;;;;;;;1.48;100.00;100637.91;5000918;28;20689;-73
2023/01/31 01:44:41;;;;;;;13.93;2.30;;;;;;;1.47;100.00;100649.88;4996368;28;20752;-73
2023/01/31 01:47:16;;;;;;;7.13;1.90;;;;;;;1.49;100.00;100645.59;4998082;28;20220;-73
2023/01/31 01:49:43;;;;;;;4.70;1.53;;;;;;;1.47;100.00;100647.28;5000916;28;20204;-73
2023/01/31 01:52:14;;;;;;;8.37;2.10;;;;;;;1.44;100.00;100655.00;5002425;28;20216;-73
2023/01/31 01:54:46;;;;;;;12.13;1.73;;;;;;;1.37;100.00;100654.88;4996934;28;20292;-72
2023/01/31 01:57:17;;;;;;;3.67;1.50;;;;;;;1.38;100.00;100647.19;4983950;28;20707;-73
2023/01/31 01:59:48;;;;;;;4.83;1.50;;;;;;;1.33;100.00;100657.41;5001143;28;20234;-73
2023/01/31 02:02:15;;;;;;;6.80;1.63;;;;;;;1.39;100.00;100660.91;4999776;28;20213;-73
2023/01/31 02:04:46;;;;;;;9.73;1.70;;;;;;;1.40;100.00;100663.50;4999872;28;20271;-73
2023/01/31 02:07:13;;;;;;;8.40;1.67;;;;;;;1.39;100.00;100669.50;5000926;28;20562;-73
2023/01/31 02:09:51;;;;;;;7.93;1.20;;;;;;;1.38;100.00;100680.59;5002552;28;20207;-73
2023/01/31 02:12:18;;;;;;;10.17;1.70;;;;;;;1.39;100.00;100671.19;4985676;28;20236;-73
2023/01/31 02:14:47;;;;;;;6.30;1.53;;;;;;;1.35;100.00;100666.84;5000740;28;20197;-73
2023/01/31 02:17:13;;;;;;;4.80;1.53;;;;;;;1.39;100.00;100684.91;4999956;28;20295;-73
2023/01/31 02:19:51;;;;;;;6.37;1.50;;;;;;;1.43;100.00;100690.94;4999962;28;20783;-72
2023/01/31 02:22:25;;;;;;;7.23;1.20;;;;;;;1.40;100.00;100694.31;5002048;28;20255;-73
2023/01/31 02:25:28;;;;;;;8.23;1.40;;;;;;;1.38;100.00;100690.88;4982614;28;20201;-73
2023/01/31 02:28:22;;;;;;;11.77;1.90;;;;;;;1.36;100.00;100697.72;4995053;28;20192;-73
2023/01/31 02:31:09;;;;;;;4.80;1.10;;;;;;;1.28;100.00;100697.59;4994883;28;20201;-73
2023/01/31 02:33:42;;;;;;;8.73;1.50;;;;;;;1.29;100.00;100717.31;4978505;28;20743;-73
2023/01/31 02:36:22;;;;;;;9.70;1.70;;;;;;;1.35;100.00;100715.66;4998682;28;20200;-73
2023/01/31 02:39:00;;;;;;;6.10;1.57;;;;;;;1.38;100.00;100726.00;4980274;28;20220;-73
2023/01/31 02:41:36;;;;;;;6.53;1.63;;;;;;;1.40;100.00;100735.44;4999744;28;20595;-73
2023/01/31 02:47:03;;;;;;;5.27;1.50;;;;;;;1.43;100.00;100753.47;4981003;28;20247;-73
2023/01/31 02:49:39;;;;;;;11.07;1.77;;;;;;;1.46;100.00;100753.50;4998979;28;20600;-73
2023/01/31 02:52:19;;;;;;;9.83;1.70;;;;;;;1.41;100.00;100752.59;4982558;28;20331;-73
2023/01/31 02:57:50;;;;;;;7.93;1.67;;;;;;;1.35;100.00;100764.47;4981168;28;20209;-73
2023/01/31 03:00:19;;;;;;;4.83;1.30;;;;;;;1.29;100.00;100765.25;4984868;28;20204;-73
2023/01/31 03:02:46;;;;;;;9.53;2.07;;;;;;;1.29;100.00;100786.66;4981802;28;20277;-73
2023/01/31 03:05:16;;;;;;;7.73;1.47;;;;;;;1.20;100.00;100781.41;4982029;28;20581;-73
2023/01/31 03:07:47;;;;;;;5.00;1.50;;;;;;;1.10;100.00;100787.25;4986032;28;20208;-73
2023/01/31 03:10:26;;;;;;;3.50;1.33;;;;;;;1.05;100.00;100796.56;4981243;28;20260;-73
2023/01/31 03:13:07;;;;;;;5.67;1.43;;;;;;;1.09;100.00;100800.91;4994577;28;20244;-73
2023/01/31 03:18:38;;;;;;;10.50;2.33;;;;;;;1.07;100.00;100815.44;4997378;28;20216;-72
2023/01/31 03:21:13;;;;;;;11.73;2.50;;;;;;;1.05;100.00;100806.84;4983090;28;20236;-73
2023/01/31 03:23:42;;;;;;;7.10;1.33;;;;;;;1.11;100.00;100807.81;4979630;28;20207;-73
2023/01/31 03:26:10;;;;;;;4.33;1.20;;;;;;;1.12;100.00;100816.38;4995720;28;20196;-73
2023/01/31 03:28:41;;;;;;;5.43;1.40;;;;;;;1.11;100.00;100805.25;4982393;28;20204;-73
2023/01/31 03:31:14;;;;;;;6.90;1.17;;;;;;;1.10;100.00;100808.66;4979428;28;20278;-73
2023/01/31 03:33:44;;;;;;;6.87;1.77;;;;;;;1.10;100.00;100800.09;4979641;28;20232;-73
2023/01/31 03:36:23;;;;;;;5.50;1.37;;;;;;;1.07;100.00;100805.16;5001043;28;20218;-73
2023/01/31 03:39:02;;;;;;;8.63;1.90;;;;;;;1.04;100.00;100805.09;4982911;28;20270;-73
2023/01/31 03:41:37;;;;;;;8.97;1.87;;;;;;;1.03;100.00;100813.66;4980010;28;20307;-73
2023/01/31 03:44:10;;;;;;;5.50;1.23;;;;;;;1.04;100.00;100823.09;4998041;28;20673;-73
2023/01/31 03:46:42;;;;;;;10.60;1.80;;;;;;;1.07;100.00;100824.03;4987905;28;20193;-72
2023/01/31 03:49:15;;;;;;;3.23;1.13;;;;;;;1.07;100.00;100824.03;4983292;28;20214;-73
2023/01/31 03:51:48;;;;;;;2.83;1.50;;;;;;;1.15;100.00;100831.84;4985620;28;20224;-73
2023/01/31 03:54:20;;;;;;;6.77;1.20;;;;;;;1.18;100.00;100836.16;4984341;28;20208;-73
2023/01/31 03:56:54;;;;;;;6.33;1.67;;;;;;;1.19;100.00;100835.31;4986412;28;20208;-73
2023/01/31 03:59:28;;;;;;;8.70;1.60;;;;;;;1.17;100.00;100842.16;4985800;28;20653;-73
2023/01/31 04:01:58;;;;;;;9.10;1.70;;;;;;;1.23;100.00;100847.38;5002004;28;20768;-73
2023/01/31 04:04:28;;;;;;;8.23;2.03;;;;;;;1.25;100.00;100848.25;4984328;28;20223;-73
2023/01/31 04:06:56;;;;;;;6.90;1.37;;;;;;;1.27;100.00;100847.44;4998985;28;20197;-73
2023/01/31 04:09:22;;;;;;;10.17;1.33;;;;;;;1.25;100.00;100854.28;4987278;28;20220;-73
2023/01/31 04:11:50;;;;;;;5.03;1.10;;;;;;;1.25;100.00;100861.09;5003559;28;20223;-73
2023/01/31 04:14:17;;;;;;;8.07;1.50;;;;;;;1.31;100.00;100863.78;5004374;28;20689;-73
2023/01/31 04:16:44;;;;;;;5.30;1.40;;;;;;;1.35;100.00;100869.81;5002808;28;20208;-73
2023/01/31 04:19:11;;;;;;;9.03;1.60;;;;;;;1.39;100.00;100869.91;4987069;28;20216;-72
2023/01/31 04:21:38;;;;;;;9.53;1.47;;;;;;;1.38;100.00;100872.44;4987306;28;20276;-73
2023/01/31 04:24:08;;;;;;;12.50;1.33;;;;;;;1.37;100.00;100881.84;4994425;28;20782;-73
2023/01/31 04:26:34;;;;;;;8.37;1.60;;;;;;;1.41;100.00;100878.50;4980534;28;20505;-73
2023/01/31 04:29:04;;;;;;;6.47;1.77;;;;;;;1.44;100.00;100881.13;4999685;28;20621;-73
2023/01/31 04:31:30;;;;;;;5.93;1.20;;;;;;;1.46;100.00;100892.28;5003598;28;20744;-73
2023/01/31 04:33:57;;;;;;;3.93;1.20;;;;;;;1.48;100.00;100889.72;5000195;28;20661;-73
2023/01/31 04:36:23;;;;;;;6.57;1.47;;;;;;;1.49;100.00;100894.00;5002264;28;20556;-73
2023/01/31 04:38:50;;;;;;;3.40;1.23;;;;;;;1.57;100.00;100899.28;4999605;28;20240;-73
2023/01/31 04:41:18;;;;;;;8.27;1.60;;;;;;;1.58;100.00;100906.16;5004231;28;20287;-72
2023/01/31 04:43:44;;;;;;;6.43;1.40;;;;;;;1.57;100.00;100905.28;4998729;28;20227;-72
2023/01/31 04:46:11;;;;;;;5.53;1.70;;;;;;;1.57;100.00;100895.00;4999943;28;20197;-72
2023/01/31 04:48:38;;;;;;;5.87;1.50;;;;;;;1.53;100.00;100898.38;5001715;28;20224;-72
2023/01/31 04:51:04;;;;;;;7.10;1.10;;;;;;;1.51;100.00;100897.47;5002360;28;21927;-72
2023/01/31 04:53:31;;;;;;;5.10;1.23;;;;;;;1.52;100.00;100897.50;5002864;28;20655;-72
2023/01/31 04:55:57;;;;;;;7.53;1.43;;;;;;;1.51;100.00;100894.91;4999169;28;20568;-72
2023/01/31 04:58:25;;;;;;;6.33;1.60;;;;;;;1.51;100.00;100892.31;4999592;28;20224;-72
2023/01/31 05:00:53;;;;;;;3.50;1.27;;;;;;;1.52;100.00;100899.22;4998967;28;20216;-72
2023/01/31 05:03:19;;;;;;;2.93;1.30;;;;;;;1.50;100.00;100900.91;5000164;28;20939;-72
2023/01/31 05:05:47;;;;;;;7.43;1.53;;;;;;;1.47;100.00;100900.84;5001446;28;20590;-72
2023/01/31 05:08:14;;;;;;;7.27;1.70;;;;;;;1.46;100.00;100891.41;4984050;28;20588;-72
2023/01/31 05:10:41;;;;;;;7.37;1.50;;;;;;;1.47;100.00;100896.56;5003426;28;20192;-73
2023/01/31 05:13:08;;;;;;;4.53;1.40;;;;;;;1.46;100.00;100889.72;4999871;28;20641;-73
2023/01/31 05:15:37;;;;;;;3.17;1.00;;;;;;;1.42;100.00;100894.75;4986372;28;20263;-72
2023/01/31 05:18:04;;;;;;;5.43;1.30;;;;;;;1.43;100.00;100904.22;5001205;28;20226;-72
2023/01/31 05:20:32;;;;;;;4.90;1.07;;;;;;;1.43;100.00;100910.22;4980483;28;20649;-72
2023/01/31 05:22:59;;;;;;;6.70;1.77;;;;;;;1.44;100.00;100909.38;5001270;28;20707;-72
2023/01/31 05:25:25;;;;;;;4.73;1.60;;;;;;;1.45;100.00;100908.53;4999849;28;20584;-72
2023/01/31 05:27:52;;;;;;;2.27;1.07;;;;;;;1.46;100.00;100917.09;4998216;28;20201;-72
2023/01/31 05:30:19;;;;;;;9.07;1.80;;;;;;;1.47;100.00;100918.84;5003245;28;20209;-72
2023/01/31 05:32:48;;;;;;;7.00;1.73;;;;;;;1.47;100.00;100914.53;4999866;28;20291;-73
2023/01/31 05:35:15;;;;;;;7.10;0.97;;;;;;;1.48;100.00;100920.56;5000120;28;20292;-72
2023/01/31 05:37:42;;;;;;;9.13;1.20;;;;;;;1.48;100.00;100920.56;5000569;28;20577;-72
2023/01/31 05:40:10;;;;;;;7.97;1.73;;;;;;;1.49;100.00;100927.44;5000671;28;20220;-72
2023/01/31 05:42:36;;;;;;;6.40;1.77;;;;;;;1.49;100.00;100924.84;5001209;28;20486;-72
2023/01/31 05:45:03;;;;;;;5.90;1.00;;;;;;;1.49;100.00;100924.84;5000083;28;20817;-72
2023/01/31 05:47:29;;;;;;;6.10;1.60;;;;;;;1.51;100.00;100933.44;4985803;28;20208;-72
2023/01/31 05:49:57;;;;;;;7.90;1.30;;;;;;;1.48;100.00;100930.84;5004461;28;20843;-72
2023/01/31 05:52:23;;;;;;;5.63;1.47;;;;;;;1.48;100.00;100936.00;4999177;28;20217;-72
2023/01/31 05:54:50;;;;;;;3.97;1.17;;;;;;;1.49;100.00;100927.44;4998772;28;20208;-72
2023/01/31 05:57:16;;;;;;;4.70;1.33;;;;;;;1.48;100.00;100931.72;4993977;28;20224;-72
2023/01/31 05:59:43;;;;;;;6.80;1.57;;;;;;;1.47;100.00;100935.09;4995893;28;20741;-72
2023/01/31 06:02:10;;;;;;;4.43;1.40;;;;;;;1.49;100.00;100936.00;5000313;28;20224;-72
2023/01/31 06:04:36;;;;;;;8.97;1.50;;;;;;;1.48;100.00;100936.00;4999011;28;20707;-72
2023/01/31 06:07:04;;;;;;;4.20;1.37;;;;;;;1.50;100.00;100931.75;4997596;28;20226;-72
2023/01/31 06:09:31;;;;;;;7.40;1.70;;;;;;;1.50;100.00;100931.75;4993824;28;20201;-72
2023/01/31 06:11:57;;;;;;;4.50;1.30;;;;;;;1.50;100.00;100942.00;5001697;28;20231;-72
2023/01/31 06:14:24;;;;;;;4.30;1.77;;;;;;;1.49;100.00;100947.97;5002712;28;20285;-72
2023/01/31 06:16:50;;;;;;;6.97;1.80;;;;;;;1.49;100.00;100942.84;5001595;28;20582;-72
2023/01/31 06:19:16;;;;;;;11.40;1.23;;;;;;;1.49;100.00;100940.28;5002886;28;20217;-72
2023/01/31 06:21:44;;;;;;;4.10;1.40;;;;;;;1.52;100.00;100937.75;5003713;28;20224;-72
2023/01/31 06:24:11;;;;;;;6.47;1.37;;;;;;;1.50;100.00;100949.72;5000398;28;20561;-70
2023/01/31 06:26:38;;;;;;;3.80;1.53;;;;;;;1.51;100.00;100956.56;4996858;28;20193;-71
2023/01/31 06:29:05;;;;;;;8.17;1.77;;;;;;;1.53;100.00;100957.50;4989992;28;20217;-71
2023/01/31 06:31:32;;;;;;;4.20;1.70;;;;;;;1.54;100.00;100961.78;4984472;28;20220;-71
2023/01/31 06:33:58;;;;;;;2.73;0.90;;;;;;;1.52;100.00;100955.75;4981616;28;20202;-70
2023/01/31 06:36:25;;;;;;;10.20;2.07;;;;;;;1.51;100.00;100964.28;4983584;28;20197;-71
2023/01/31 06:38:52;;;;;;;6.03;1.10;;;;;;;1.51;100.00;100969.44;4985238;28;20221;-71
2023/01/31 06:41:20;;;;;;;8.40;1.30;;;;;;;1.49;100.00;100973.69;4986306;28;20197;-71
2023/01/31 06:43:47;;;;;;;7.53;1.60;;;;;;;1.47;100.00;100970.22;4984396;28;20702;-71
2023/01/31 06:46:13;;;;;;;8.27;1.70;;;;;;;1.42;100.00;100969.28;4984885;28;20205;-71
2023/01/31 06:48:39;;;;;;;9.33;1.70;;;;;;;1.47;100.00;100971.09;4985230;28;20217;-71
2023/01/31 06:51:06;;;;;;;6.70;1.50;;;;;;;1.49;100.00;100968.53;4979970;28;20208;-71
2023/01/31 06:53:32;;;;;;;9.93;1.60;;;;;;;1.51;100.00;100970.31;4981533;28;20243;-71
2023/01/31 06:55:59;;;;;;;10.50;1.67;;;;;;;1.52;100.00;100969.47;4985783;28;20204;-71
2023/01/31 06:58:27;;;;;;;7.00;1.47;;;;;;;1.56;100.00;100987.50;4983896;28;20267;-70
2023/01/31 07:00:53;;;;;;;7.03;1.60;;;;;;;1.58;100.00;100975.53;4984290;28;20205;-71
2023/01/31 07:03:19;;;;;;;12.57;1.70;;;;;;;1.62;100.00;100979.88;4978140;28;20211;-71
2023/01/31 07:05:47;;;;;;;7.60;1.47;;;;;;;1.61;100.00;100981.59;4980371;28;20205;-71
2023/01/31 07:08:13;;;;;;;7.03;1.83;;;;;;;1.62;100.00;100980.78;4983548;28;20288;-71
2023/01/31 07:10:40;;;;;;;5.77;1.63;;;;;;;1.59;100.00;100980.72;4989896;28;20212;-71
2023/01/31 07:13:06;;;;;;;9.20;1.87;;;;;;;1.55;100.00;100970.34;4985002;28;20197;-71
2023/01/31 07:15:34;;;;;;;6.03;1.80;;;;;;;1.52;100.00;100973.75;4985568;28;20213;-71
2023/01/31 07:18:01;;;;;;;8.30;1.67;;;;;;;1.49;100.00;100974.53;4984740;28;20229;-71
2023/01/31 07:20:27;;;;;;;11.03;2.17;;;;;;;1.50;100.00;100981.44;4985584;28;20208;-70
2023/01/31 07:22:55;;;;;;;7.63;1.67;;;;;;;1.49;100.00;100981.41;4985281;28;20206;-71
2023/01/31 07:25:21;;;;;;;7.23;1.57;;;;;;;1.41;100.00;100988.97;4988754;28;20208;-70
2023/01/31 07:27:48;;;;;;;6.10;1.57;;;;;;;1.38;100.00;100991.50;4986540;28;20573;-70
2023/01/31 07:30:15;;;;;;;8.13;2.03;;;;;;;1.34;100.00;100987.16;4988172;28;20692;-70
2023/01/31 07:32:42;;;;;;;8.17;2.03;;;;;;;1.33;100.00;100986.25;4987165;28;20574;-70
2023/01/31 07:35:09;;;;;;;6.30;1.70;;;;;;;1.31;100.00;100979.38;4983680;28;20674;-70
2023/01/31 07:37:36;;;;;;;7.80;1.67;;;;;;;1.30;100.00;100978.53;4989496;28;20209;-70
2023/01/31 07:40:04;;;;;;;9.93;1.53;;;;;;;1.29;100.00;100976.78;4988335;28;20758;-70
2023/01/31 07:42:31;;;;;;;8.67;1.83;;;;;;;1.28;100.00;100982.75;4975267;28;20225;-70
2023/01/31 07:44:58;;;;;;;7.73;2.30;;;;;;;1.27;100.00;100983.59;4988439;28;20697;-70
2023/01/31 07:47:24;;;;;;;4.43;1.70;;;;;;;1.22;100.00;100980.09;4970177;28;20201;-70
2023/01/31 07:49:52;;;;;;;5.50;2.17;;;;;;;1.23;100.00;100986.06;4987872;28;20711;-70
2023/01/31 07:52:18;;;;;;;7.23;1.90;;;;;;;1.27;100.00;100980.19;4971376;28;20194;-70
2023/01/31 07:54:44;;;;;;;10.80;2.27;;;;;;;1.30;100.00;100982.78;4982478;28;20233;-70
2023/01/31 07:57:12;;;;;;;5.60;1.73;;;;;;;1.29;100.00;100978.50;4984797;28;20201;-70
2023/01/31 07:59:38;;;;;;;7.67;1.80;;;;;;;1.28;100.00;100982.75;4979745;28;20769;-70
2023/01/31 08:04:48;;;;;;;7.00;1.40;;;;;;;1.25;100.00;100987.84;4986712;28;20201;-70
2023/01/31 08:07:18;;;;;;;14.33;1.70;;;;;;;1.21;100.00;100993.75;4988991;28;20212;-71
2023/01/31 08:09:48;;;;;;;2.97;1.23;;;;;;;1.22;100.00;100998.06;4989214;28;20220;-70
2023/01/31 08:12:14;;;;;;;4.50;1.73;;;;;;;1.25;100.00;100997.25;4986211;28;20193;-70
2023/01/31 08:14:41;;;;;;;5.40;1.73;;;;;;;1.28;100.00;100990.44;4969782;28;20209;-70
2023/01/31 08:17:07;;;;;;;8.87;2.73;;;;;;;1.32;100.00;100993.97;4988502;28;20562;-72
2023/01/31 08:19:34;;;;;;;10.83;3.33;;;;;;;1.33;100.00;100993.97;4988805;28;20210;-70
2023/01/31 08:22:00;;;;;;;6.00;2.70;;;;;;;1.35;100.00;100985.44;4982359;28;20248;-70
2023/01/31 08:24:29;;;;;;;12.10;4.73;;;;;;;1.36;100.00;100984.63;4966256;28;20656;-70
2023/01/31 08:26:56;;;;;;;21.83;12.27;;;;;;;1.36;100.00;100977.75;4972695;28;20540;-70
2023/01/31 08:29:23;;;;;;;13.40;5.40;;;;;;;1.41;100.00;100988.13;4964720;28;20780;-70
2023/01/31 08:31:50;;;;;;;7.43;5.33;;;;;;;1.44;100.00;100985.59;4966916;28;20683;-70
2023/01/31 08:34:16;;;;;;;8.77;3.20;;;;;;;1.48;100.00;100980.53;4969425;28;20201;-70
2023/01/31 08:36:43;;;;;;;11.23;5.03;;;;;;;1.57;100.00;100974.69;4964944;28;20225;-70
2023/01/31 08:39:10;;;;;;;13.33;3.83;;;;;;;1.60;100.00;100972.16;4968356;28;20222;-70
2023/01/31 08:41:39;;;;;;;10.60;3.43;;;;;;;1.66;100.00;100966.25;4964308;28;20190;-70
2023/01/31 08:44:06;;;;;;;9.33;3.17;;;;;;;1.69;100.00;100968.88;4950611;28;20201;-70
2023/01/31 08:46:35;;;;;;;12.07;4.57;;;;;;;1.74;100.00;100974.94;4968752;28;20203;-70
2023/01/31 08:49:03;;;;;;;7.80;4.53;;;;;;;1.82;100.00;100977.66;4966074;28;20304;-70
2023/01/31 08:51:29;;;;;;;10.63;3.40;;;;;;;1.84;100.00;100978.53;4965144;28;20262;-70
2023/01/31 08:53:56;;;;;;;9.67;3.27;;;;;;;1.90;100.00;100976.06;4963408;28;20210;-70
2023/01/31 08:56:24;;;;;;;7.87;2.77;;;;;;;1.93;100.00;100980.38;4964431;28;20260;-71
2023/01/31 08:58:54;;;;;;;14.80;4.47;;;;;;;1.97;100.00;100972.75;4962638;28;20777;-70
2023/01/31 09:01:21;;;;;;;6.23;2.57;;;;;;;2.01;100.00;100959.06;4965809;28;20551;-70
2023/01/31 09:03:49;;;;;;;12.40;3.10;;;;;;;2.07;100.00;100963.44;4949335;28;20656;-71
2023/01/31 09:06:17;;;;;;;7.97;3.00;;;;;;;2.10;100.00;100967.78;4966269;28;20279;-70
2023/01/31 09:08:44;;;;;;;10.07;3.37;;;;;;;2.15;100.00;100958.41;4967064;28;20210;-70
2023/01/31 09:11:15;;;;;;;6.00;2.77;;;;;;;2.21;100.00;100964.47;4967816;28;20216;-71
2023/01/31 09:13:42;;;;;;;6.93;2.43;;;;;;;2.19;100.00;100967.88;4965866;28;20198;-71
2023/01/31 09:16:12;;;;;;;9.03;2.63;;;;;;;2.12;100.00;100974.66;4965524;28;20205;-70
2023/01/31 09:18:40;;;;;;;5.23;2.20;;;;;;;2.12;100.00;100972.06;4962682;28;20592;-70
2023/01/31 09:21:07;;;;;;;7.80;2.47;;;;;;;2.14;100.00;100979.81;4966766;28;20293;-71
2023/01/31 09:23:34;;;;;;;9.73;2.70;;;;;;;2.16;100.00;100976.41;4980306;28;20587;-70
2023/01/31 09:26:01;;;;;;;7.70;2.60;;;;;;;2.20;100.00;100975.63;4989465;28;20190;-70
2023/01/31 09:28:28;;;;;;;9.27;2.87;;;;;;;2.23;100.00;100970.53;4984724;28;20223;-71
2023/01/31 09:30:54;;;;;;;7.37;2.30;;;;;;;2.25;100.00;100965.38;4985093;28;20658;-71
2023/01/31 09:33:23;;;;;;;9.40;2.77;;;;;;;2.25;100.00;100963.69;4979469;28;20200;-71
2023/01/31 09:35:55;;;;;;;11.73;2.60;;;;;;;2.31;100.00;100957.75;4982469;28;20193;-72
2023/01/31 09:38:22;;;;;;;4.57;2.40;;;;;;;2.36;100.00;100956.13;4981169;28;20218;-72
2023/01/31 09:40:49;;;;;;;7.80;2.33;;;;;;;2.37;100.00;100955.25;4982313;28;20255;-72
2023/01/31 09:43:17;;;;;;;12.57;3.20;;;;;;;2.40;100.00;100951.88;4983247;28;20446;-72
2023/01/31 09:45:45;;;;;;;5.90;2.87;;;;;;;2.41;100.00;100951.88;4980048;28;20595;-71
2023/01/31 09:48:18;;;;;;;8.80;2.50;;;;;;;2.42;100.00;100952.75;4983705;28;20221;-71
2023/01/31 09:50:50;;;;;;;10.80;3.00;;;;;;;2.39;100.00;100955.28;4983954;28;20501;-71
2023/01/31 09:53:20;;;;;;;6.43;2.57;;;;;;;2.45;100.00;100948.50;4964312;28;20197;-71
2023/01/31 09:55:55;;;;;;;9.90;3.20;;;;;;;2.48;100.00;100947.69;4982392;28;20198;-71
2023/01/31 09:58:34;;;;;;;6.13;2.17;;;;;;;2.45;100.00;100951.06;4982824;28;20217;-72
2023/01/31 10:01:11;;;;;;;4.20;1.87;;;;;;;2.44;100.00;100938.19;4983024;28;20300;-72
2023/01/31 10:04:01;;;;;;;7.27;1.67;;;;;;;2.48;100.00;100942.53;4980325;28;20233;-71
2023/01/31 10:06:35;;;;;;;6.10;1.80;;;;;;;2.45;100.00;100937.34;4982818;28;20582;-71
2023/01/31 10:09:09;;;;;;;5.27;1.90;;;;;;;2.52;100.00;100931.44;4985735;28;20220;-71
2023/01/31 10:11:40;;;;;;;8.07;2.00;;;;;;;2.49;100.00;100936.53;4982511;28;20207;-71
2023/01/31 10:14:21;;;;;;;6.13;2.10;;;;;;;2.53;100.00;100933.13;4986583;28;20210;-71
2023/01/31 10:16:58;;;;;;;5.47;1.50;;;;;;;2.58;100.00;100930.63;4984701;28;20201;-72
2023/01/31 10:19:28;;;;;;;2.87;1.40;;;;;;;2.63;100.00;100924.69;4987693;28;20218;-72
2023/01/31 10:22:00;;;;;;;9.97;1.80;;;;;;;2.66;100.00;100926.44;4985991;28;20201;-72
2023/01/31 10:24:31;;;;;;;5.20;2.20;;;;;;;2.71;100.00;100911.91;4983870;28;20248;-71
2023/01/31 10:27:03;;;;;;;7.23;1.97;;;;;;;2.78;100.00;100908.53;4985558;28;20607;-72
2023/01/31 10:29:35;;;;;;;5.63;1.97;;;;;;;2.81;100.00;100906.00;4981429;28;20228;-72
2023/01/31 10:32:04;;;;;;;7.27;1.50;;;;;;;2.87;100.00;100905.19;4982310;28;20200;-72
2023/01/31 10:34:37;;;;;;;5.00;1.63;;;;;;;2.87;100.00;100907.78;4982067;28;20252;-72
2023/01/31 10:37:12;;;;;;;5.40;1.50;;;;;;;2.88;100.00;100912.06;4985338;28;20241;-72
2023/01/31 10:39:43;;;;;;;6.27;1.90;;;;;;;2.88;100.00;100906.06;4985894;28;20693;-71
2023/01/31 10:42:20;;;;;;;5.77;1.20;;;;;;;2.87;100.00;100902.63;4984055;28;20225;-72
2023/01/31 10:44:52;;;;;;;7.30;1.70;;;;;;;2.87;100.00;100897.47;4983137;28;20207;-72
2023/01/31 10:47:20;;;;;;;8.37;2.47;;;;;;;2.86;100.00;100898.31;4986610;28;20203;-72
2023/01/31 10:49:48;;;;;;;12.07;4.10;;;;;;;2.88;100.00;100888.88;4977371;28;20293;-72
2023/01/31 10:52:35;;;;;;;13.10;3.10;;;;;;;2.91;100.00;100882.91;4981348;28;20189;-72
2023/01/31 10:55:15;;;;;;;11.70;3.90;;;;;;;2.91;100.00;100877.75;4986120;28;20244;-71
2023/01/31 10:57:42;;;;;;;11.80;3.60;;;;;;;2.91;100.00;100873.47;4986252;28;20201;-72
2023/01/31 11:00:17;;;;;;;10.50;3.17;;;;;;;2.96;100.00;100869.22;4989666;28;20224;-72
2023/01/31 11:02:43;;;;;;;9.30;1.83;;;;;;;2.98;100.00;100864.94;4987906;28;20202;-72
2023/01/31 11:05:16;;;;;;;5.30;2.03;;;;;;;3.03;100.00;100852.97;4986351;28;20832;-72
2023/01/31 11:07:44;;;;;;;12.77;3.23;;;;;;;3.06;100.00;100849.56;4988564;28;20200;-72
2023/01/31 11:10:22;;;;;;;10.60;3.07;;;;;;;3.05;100.00;100839.25;4988549;28;20226;-72
2023/01/31 11:12:54;;;;;;;10.03;2.40;;;;;;;3.10;100.00;100838.41;4983157;28;20196;-73
2023/01/31 11:15:25;;;;;;;11.93;3.87;;;;;;;3.10;100.00;100838.41;4976468;28;20205;-72
2023/01/31 11:17:53;;;;;;;10.37;3.40;;;;;;;3.08;100.00;100832.41;4979364;28;20200;-71
2023/01/31 11:20:24;;;;;;;12.10;2.90;;;;;;;3.10;100.00;100820.38;4984310;28;20219;-71
2023/01/31 11:22:54;;;;;;;15.50;3.40;;;;;;;3.14;100.00;100816.13;4985588;28;20571;-72
2023/01/31 11:25:23;;;;;;;10.60;3.67;;;;;;;3.13;100.00;100810.13;4982669;28;20205;-72
2023/01/31 11:27:53;;;;;;;9.43;3.03;;;;;;;3.14;100.00;100803.22;4982916;28;20201;-71
2023/01/31 11:30:23;;;;;;;11.13;3.10;;;;;;;3.16;100.00;100792.06;4984232;28;20217;-72
2023/01/31 11:32:50;;;;;;;10.73;3.27;;;;;;;3.18;100.00;100797.25;4984844;28;20259;-73
2023/01/31 11:35:26;;;;;;;21.37;5.63;;;;;;;3.23;100.00;100790.41;4986627;28;20222;-71
2023/01/31 11:37:56;;;;;;;9.50;2.90;;;;;;;3.30;100.00;100778.44;4983712;28;20207;-72
2023/01/31 11:40:29;;;;;;;8.30;2.37;;;;;;;3.29;100.00;100782.72;4986774;28;20696;-71
2023/01/31 11:42:58;;;;;;;7.23;2.57;;;;;;;3.29;100.00;100775.00;4984192;28;20595;-71
2023/01/31 11:45:27;;;;;;;6.00;2.77;;;;;;;3.31;100.00;100770.72;4986049;28;20653;-72